Time;durP1;ratioP1;P1;durP2;ratioP2;P2;SDS_P1;SDS_P2;PMS_P1;PMS_P2;Temp;Humidity;BMP_temperature;BMP_pressure;BME280_temperature;BME280_humidity;BME280_pressure;Samples;Min_cycle;Max_cycle;Signal;HPM_P1;HPM_P2
2023/05/26 00:00:06;;;;;;;24.08;5.80;;;;;;;10.13;82.86;102703.69;5073890;28;20032;-72
2023/05/26 00:02:32;;;;;;;19.50;6.43;;;;;;;10.13;82.77;102702.78;5097867;28;20043;-72
2023/05/26 00:04:58;;;;;;;27.88;5.65;;;;;;;10.05;83.16;102699.56;5079444;28;20016;-72
2023/05/26 00:07:24;;;;;;;20.63;5.93;;;;;;;10.03;83.19;102706.78;5096742;28;20400;-72
2023/05/26 00:09:49;;;;;;;24.38;6.45;;;;;;;9.96;83.60;102708.88;5070590;28;20020;-72
2023/05/26 00:12:14;;;;;;;29.63;7.07;;;;;;;9.93;83.58;102706.31;5099578;28;20024;-72
2023/05/26 00:14:40;;;;;;;28.02;7.05;;;;;;;9.89;84.18;102702.00;5103682;28;20077;-72
2023/05/26 00:17:06;;;;;;;20.70;5.90;;;;;;;9.84;84.15;102703.97;5076154;28;20093;-73
2023/05/26 00:19:35;;;;;;;23.98;6.72;;;;;;;9.81;84.26;102710.38;5072359;28;20028;-72
2023/05/26 00:22:01;;;;;;;23.02;6.40;;;;;;;9.75;84.35;102718.66;5083503;28;20042;-72
2023/05/26 00:24:26;;;;;;;28.05;6.22;;;;;;;9.76;84.28;102713.22;5096311;28;20122;-72
2023/05/26 00:26:51;;;;;;;28.42;6.97;;;;;;;9.74;84.87;102707.03;5099148;28;20434;-72
2023/05/26 00:29:17;;;;;;;26.83;6.53;;;;;;;9.74;85.29;102722.28;5084777;28;20285;-72
2023/05/26 00:31:42;;;;;;;22.95;6.82;;;;;;;9.69;85.62;102717.06;5099142;28;20028;-73
2023/05/26 00:34:08;;;;;;;26.02;6.75;;;;;;;9.67;85.60;102721.66;5100169;28;20034;-72
2023/05/26 00:36:33;;;;;;;19.33;5.85;;;;;;;9.64;85.50;102715.53;5079291;28;20336;-72
2023/05/26 00:38:58;;;;;;;23.92;6.43;;;;;;;9.60;85.47;102721.03;5100971;28;20089;-72
2023/05/26 00:41:23;;;;;;;24.52;6.03;;;;;;;9.54;85.57;102715.00;5076332;28;20023;-72
2023/05/26 00:43:51;;;;;;;23.55;6.15;;;;;;;9.49;86.23;102730.41;5085568;28;20024;-72
2023/05/26 00:46:16;;;;;;;25.33;6.35;;;;;;;9.46;86.30;102723.38;5080592;28;20024;-72
2023/05/26 00:48:41;;;;;;;24.85;6.35;;;;;;;9.43;86.57;102719.00;5101628;28;20068;-72
2023/05/26 00:51:07;;;;;;;22.88;5.80;;;;;;;9.37;86.74;102729.06;5091952;28;20038;-72
2023/05/26 00:53:33;;;;;;;25.73;6.55;;;;;;;9.30;86.75;102723.09;5097026;28;20024;-72
2023/05/26 00:55:59;;;;;;;23.80;6.35;;;;;;;9.21;87.31;102721.63;5075836;28;20047;-72
2023/05/26 00:58:26;;;;;;;27.30;6.40;;;;;;;9.15;87.41;102723.66;5095896;28;20035;-72
2023/05/26 01:00:51;;;;;;;24.20;6.43;;;;;;;9.17;87.74;102724.47;5099688;28;20076;-72
2023/05/26 01:03:18;;;;;;;23.50;6.63;;;;;;;9.17;87.65;102717.28;5080472;28;20074;-72
2023/05/26 01:05:43;;;;;;;27.98;6.65;;;;;;;9.13;87.44;102720.16;5089723;28;20313;-72
2023/05/26 01:08:08;;;;;;;24.30;6.38;;;;;;;9.10;87.96;102730.03;5101301;28;20066;-72
2023/05/26 01:10:34;;;;;;;30.70;8.00;;;;;;;9.12;88.13;102732.66;5093084;28;20116;-73
2023/05/26 01:13:03;;;;;;;21.92;6.43;;;;;;;9.06;88.25;102739.16;5075917;28;20385;-72
2023/05/26 01:15:43;;;;;;;25.35;6.10;;;;;;;9.06;88.30;102730.22;5073838;28;20473;-72
2023/05/26 01:18:13;;;;;;;30.33;6.22;;;;;;;8.97;88.77;102731.44;5097544;28;20024;-72
2023/05/26 01:20:56;;;;;;;26.08;6.50;;;;;;;8.99;88.65;102731.38;5101316;28;20453;-73
2023/05/26 01:23:51;;;;;;;23.60;6.35;;;;;;;8.94;88.57;102744.97;5092274;28;20031;-72
2023/05/26 01:26:23;;;;;;;31.23;6.70;;;;;;;8.88;88.99;102737.13;5070442;28;20043;-72
2023/05/26 01:28:52;;;;;;;26.20;6.65;;;;;;;8.87;88.80;102735.38;5084185;28;20023;-72
2023/05/26 01:31:18;;;;;;;25.45;7.13;;;;;;;8.84;88.84;102739.03;5080094;28;20123;-73
2023/05/26 01:33:43;;;;;;;23.35;5.95;;;;;;;8.86;89.51;102742.56;5083370;28;20351;-72
2023/05/26 01:36:08;;;;;;;22.30;5.50;;;;;;;8.88;89.23;102737.13;5074779;28;20036;-72
2023/05/26 01:38:35;;;;;;;27.23;6.30;;;;;;;8.84;89.21;102735.50;5092759;28;20416;-73
2023/05/26 01:41:18;;;;;;;26.13;6.00;;;;;;;8.82;89.03;102737.38;5102711;28;20040;-72
2023/05/26 01:44:16;;;;;;;28.30;6.72;;;;;;;8.83;89.21;102741.78;5090988;28;20081;-72
2023/05/26 01:46:46;;;;;;;19.77;5.47;;;;;;;8.83;89.75;102740.00;5097054;28;20031;-72
2023/05/26 01:49:13;;;;;;;26.20;6.78;;;;;;;8.72;89.57;102736.81;5073426;28;20030;-72
2023/05/26 01:51:48;;;;;;;25.25;6.97;;;;;;;8.67;90.15;102734.28;5103238;28;20028;-73
2023/05/26 01:54:16;;;;;;;27.15;6.47;;;;;;;8.67;90.34;102739.66;5094610;28;20050;-72
2023/05/26 01:56:43;;;;;;;25.45;6.63;;;;;;;8.66;90.40;102737.88;5097681;28;20060;-72
2023/05/26 01:59:10;;;;;;;25.13;6.75;;;;;;;8.62;89.80;102741.59;5100641;28;20455;-72
2023/05/26 02:01:35;;;;;;;23.05;6.72;;;;;;;8.62;90.14;102740.75;5096347;28;20055;-72
2023/05/26 02:04:01;;;;;;;26.58;7.40;;;;;;;8.60;89.84;102745.28;5094433;28;20063;-72
2023/05/26 02:06:26;;;;;;;24.05;6.07;;;;;;;8.60;89.91;102748.84;5092577;28;20040;-72
2023/05/26 02:08:51;;;;;;;26.20;5.55;;;;;;;8.54;90.11;102749.91;5078232;28;20024;-72
2023/05/26 02:11:17;;;;;;;28.35;6.40;;;;;;;8.55;90.00;102746.31;5098795;28;20107;-72
2023/05/26 02:13:43;;;;;;;25.80;6.35;;;;;;;8.49;90.06;102745.63;5074177;28;20035;-72
2023/05/26 02:16:09;;;;;;;24.00;5.95;;;;;;;8.49;90.13;102741.16;5101623;28;20034;-72
2023/05/26 02:18:37;;;;;;;26.10;6.22;;;;;;;8.47;90.38;102748.38;5097609;28;20039;-72
2023/05/26 02:21:02;;;;;;;22.58;5.43;;;;;;;8.48;90.24;102751.94;5099529;28;20028;-72
2023/05/26 02:23:27;;;;;;;26.25;6.45;;;;;;;8.51;90.29;102751.84;5104514;28;20168;-72
2023/05/26 02:25:53;;;;;;;22.92;6.82;;;;;;;8.48;90.45;102755.50;5088909;28;20032;-72
2023/05/26 02:28:18;;;;;;;24.50;5.93;;;;;;;8.43;90.47;102757.41;5098632;28;20020;-72
2023/05/26 02:30:45;;;;;;;31.08;6.65;;;;;;;8.47;90.64;102753.72;5071293;28;20138;-72
2023/05/26 02:33:10;;;;;;;27.67;6.07;;;;;;;8.44;90.62;102753.84;5101131;28;20464;-73
2023/05/26 02:35:35;;;;;;;22.05;5.53;;;;;;;8.44;90.31;102752.94;5078435;28;20020;-72
2023/05/26 02:38:00;;;;;;;28.75;7.22;;;;;;;8.43;90.22;102753.84;5098602;28;20120;-73
2023/05/26 02:40:26;;;;;;;21.13;5.20;;;;;;;8.39;90.14;102758.47;5083212;28;20023;-72
2023/05/26 02:42:51;;;;;;;26.73;6.72;;;;;;;8.38;90.24;102754.88;5094529;28;20028;-72
2023/05/26 02:45:16;;;;;;;33.33;5.80;;;;;;;8.38;90.57;102749.53;5099231;28;20463;-72
2023/05/26 02:47:42;;;;;;;28.25;6.57;;;;;;;8.39;90.10;102753.97;5098016;28;20089;-72
2023/05/26 02:50:07;;;;;;;31.85;5.95;;;;;;;8.34;90.09;102747.88;5080455;28;20138;-72
2023/05/26 02:52:32;;;;;;;25.80;6.78;;;;;;;8.35;90.15;102741.59;5092544;28;20029;-72
2023/05/26 02:54:58;;;;;;;21.85;5.03;;;;;;;8.26;90.16;102744.59;5080642;28;20093;-73
2023/05/26 02:57:23;;;;;;;23.58;5.75;;;;;;;8.24;90.01;102751.78;5092870;28;20051;-73
2023/05/26 02:59:48;;;;;;;26.35;6.72;;;;;;;8.21;90.02;102751.88;5097082;28;20049;-72
2023/05/26 03:02:14;;;;;;;27.58;5.70;;;;;;;8.20;90.14;102752.84;5090547;28;20042;-72
2023/05/26 03:04:39;;;;;;;24.73;5.88;;;;;;;8.16;90.16;102752.03;5100764;28;20138;-72
2023/05/26 03:07:07;;;;;;;24.58;6.65;;;;;;;8.10;90.40;102754.91;5081287;28;20030;-73
2023/05/26 03:09:33;;;;;;;25.05;5.82;;;;;;;8.10;90.64;102752.25;5098636;28;20054;-73
2023/05/26 03:11:58;;;;;;;24.58;5.45;;;;;;;8.09;90.72;102753.16;5090555;28;20024;-73
2023/05/26 03:14:25;;;;;;;30.45;7.18;;;;;;;8.04;90.77;102756.00;5089044;28;20027;-72
2023/05/26 03:16:51;;;;;;;27.08;6.47;;;;;;;8.01;91.00;102750.75;5079762;28;20161;-73
2023/05/26 03:19:17;;;;;;;23.73;5.72;;;;;;;8.02;91.14;102757.84;5080925;28;20027;-73
2023/05/26 03:21:42;;;;;;;28.52;6.60;;;;;;;7.98;90.57;102756.19;5072907;28;20027;-73
2023/05/26 03:24:08;;;;;;;26.23;6.15;;;;;;;8.01;90.75;102758.78;5070282;28;20145;-73
2023/05/26 03:26:33;;;;;;;23.88;6.13;;;;;;;8.01;90.99;102761.44;5095389;28;20028;-73
2023/05/26 03:28:58;;;;;;;31.05;6.85;;;;;;;8.01;91.03;102764.13;5093943;28;20379;-73
2023/05/26 03:31:26;;;;;;;22.25;6.05;;;;;;;7.98;91.15;102766.91;5097481;28;20051;-72
2023/05/26 03:33:51;;;;;;;27.20;6.15;;;;;;;7.95;91.01;102764.31;5092010;28;20031;-73
2023/05/26 03:36:17;;;;;;;20.70;5.50;;;;;;;7.92;90.73;102775.13;5103930;28;20032;-73
2023/05/26 03:38:43;;;;;;;23.55;6.03;;;;;;;7.92;90.88;102768.88;5090883;28;20016;-73
2023/05/26 03:41:08;;;;;;;25.55;5.70;;;;;;;7.91;91.26;102770.69;5090096;28;20391;-72
2023/05/26 03:43:34;;;;;;;27.15;5.88;;;;;;;7.88;91.16;102773.47;5100787;28;20039;-73
2023/05/26 03:46:00;;;;;;;22.60;5.97;;;;;;;7.84;91.40;102779.84;5100375;28;20023;-72
2023/05/26 03:48:25;;;;;;;22.38;5.25;;;;;;;7.82;91.45;102792.41;5102583;28;20028;-73
2023/05/26 03:50:51;;;;;;;21.15;5.07;;;;;;;7.77;91.69;102788.97;5087118;28;20024;-73
2023/05/26 03:53:16;;;;;;;27.15;6.38;;;;;;;7.80;91.68;102788.88;5105168;28;20382;-73
2023/05/26 03:55:42;;;;;;;24.27;5.93;;;;;;;7.73;91.52;102780.19;5082023;28;20047;-73
2023/05/26 03:58:07;;;;;;;29.20;7.30;;;;;;;7.68;91.54;102785.66;5077985;28;20107;-73
2023/05/26 04:00:32;;;;;;;27.92;5.85;;;;;;;7.68;92.03;102784.78;5094929;28;20026;-73
2023/05/26 04:02:59;;;;;;;27.10;5.88;;;;;;;7.69;92.12;102779.38;5081309;28;20081;-73
2023/05/26 04:05:25;;;;;;;25.88;7.35;;;;;;;7.69;91.96;102781.19;5084198;28;20027;-72
2023/05/26 04:07:50;;;;;;;25.85;5.95;;;;;;;7.62;91.76;102779.63;5073469;28;20419;-73
2023/05/26 04:10:16;;;;;;;28.25;6.13;;;;;;;7.64;92.06;102783.09;5102348;28;20054;-73
2023/05/26 04:12:41;;;;;;;24.55;6.65;;;;;;;7.64;92.10;102772.41;5102911;28;20351;-72
2023/05/26 04:15:09;;;;;;;32.58;6.38;;;;;;;7.60;92.34;102781.44;5083123;28;20436;-72
2023/05/26 04:17:37;;;;;;;26.45;6.57;;;;;;;7.61;92.51;102786.75;5101673;28;20051;-73
2023/05/26 04:20:07;;;;;;;23.48;6.63;;;;;;;7.62;92.79;102791.19;5077441;28;20030;-72
2023/05/26 04:22:33;;;;;;;25.75;6.13;;;;;;;7.64;93.08;102788.47;5084198;28;20032;-73
2023/05/26 04:24:58;;;;;;;27.95;6.03;;;;;;;7.65;92.90;102793.75;5093563;28;20027;-73
2023/05/26 04:27:24;;;;;;;24.10;6.15;;;;;;;7.64;93.41;102793.81;5097438;28;20111;-73
2023/05/26 04:29:50;;;;;;;24.98;6.10;;;;;;;7.61;92.92;102794.78;5080635;28;20016;-73
2023/05/26 04:32:16;;;;;;;26.33;6.15;;;;;;;7.66;93.29;102797.34;5086595;28;20032;-73
2023/05/26 04:34:44;;;;;;;32.78;6.80;;;;;;;7.68;93.40;102796.34;5093629;28;20027;-72
2023/05/26 04:37:09;;;;;;;34.60;7.10;;;;;;;7.67;93.46;102794.63;5093446;28;20479;-73
2023/05/26 04:39:35;;;;;;;28.02;5.93;;;;;;;7.69;94.15;102806.16;5096527;28;20035;-73
2023/05/26 04:42:02;;;;;;;29.45;6.35;;;;;;;7.70;94.34;102805.22;5101740;28;20541;-73
2023/05/26 04:44:28;;;;;;;30.08;6.78;;;;;;;7.73;94.44;102803.38;5083943;28;20479;-72
2023/05/26 04:46:54;;;;;;;25.50;6.43;;;;;;;7.77;94.65;102802.38;5096884;28;20026;-72
2023/05/26 04:49:22;;;;;;;23.92;6.40;;;;;;;7.76;94.49;102804.16;5074612;28;20112;-73
2023/05/26 04:51:48;;;;;;;23.85;7.07;;;;;;;7.83;94.83;102802.16;5085803;28;20020;-73
2023/05/26 04:54:14;;;;;;;25.45;6.00;;;;;;;7.82;94.76;102795.94;5081137;28;20111;-73
2023/05/26 04:56:40;;;;;;;23.58;5.50;;;;;;;7.88;94.94;102808.28;5087350;28;20532;-73
2023/05/26 04:59:06;;;;;;;29.17;7.20;;;;;;;7.91;95.16;102812.66;5091535;28;20024;-72
2023/05/26 05:01:32;;;;;;;26.00;7.82;;;;;;;7.95;95.41;102815.19;5082742;28;20508;-73
2023/05/26 05:03:57;;;;;;;29.23;8.02;;;;;;;8.01;95.39;102812.31;5100409;28;20027;-72
2023/05/26 05:06:23;;;;;;;31.88;7.60;;;;;;;8.08;95.65;102814.81;5068219;28;20043;-72
2023/05/26 05:08:48;;;;;;;32.15;7.60;;;;;;;8.10;95.16;102808.47;5077337;28;20039;-72
2023/05/26 05:11:13;;;;;;;29.25;7.75;;;;;;;8.15;95.26;102811.88;5093069;28;20053;-72
2023/05/26 05:13:39;;;;;;;24.90;7.03;;;;;;;8.21;95.67;102810.81;5085352;28;20033;-73
2023/05/26 05:16:04;;;;;;;26.25;7.10;;;;;;;8.25;95.00;102812.47;5096400;28;20027;-72
2023/05/26 05:18:29;;;;;;;22.75;6.20;;;;;;;8.28;95.43;102819.53;5083725;28;20132;-72
2023/05/26 05:20:56;;;;;;;31.73;6.68;;;;;;;8.36;95.41;102821.06;5091851;28;20032;-72
2023/05/26 05:23:21;;;;;;;29.00;8.68;;;;;;;8.38;95.28;102816.50;5080695;28;20051;-72
2023/05/26 05:25:47;;;;;;;31.98;7.25;;;;;;;8.44;94.70;102817.25;5094692;28;20435;-72
2023/05/26 05:28:12;;;;;;;36.35;7.75;;;;;;;8.51;94.65;102821.50;5100412;28;20109;-72
2023/05/26 05:30:37;;;;;;;28.17;8.45;;;;;;;8.56;94.64;102823.13;5094826;28;20035;-72
2023/05/26 05:33:02;;;;;;;28.95;7.63;;;;;;;8.61;93.39;102831.00;5100016;28;20028;-73
2023/05/26 05:35:28;;;;;;;28.05;7.85;;;;;;;8.68;93.57;102832.56;5071969;28;20376;-72
2023/05/26 05:37:56;;;;;;;32.70;8.13;;;;;;;8.74;93.45;102828.75;5099269;28;20013;-73
2023/05/26 05:40:22;;;;;;;27.88;8.00;;;;;;;8.81;93.95;102833.00;5077992;28;20045;-72
2023/05/26 05:42:47;;;;;;;22.15;7.00;;;;;;;8.88;93.50;102834.53;5090053;28;20024;-72
2023/05/26 05:45:12;;;;;;;28.10;7.63;;;;;;;8.96;93.11;102823.56;5094711;28;20032;-72
2023/05/26 05:47:37;;;;;;;29.00;7.93;;;;;;;9.03;92.48;102833.13;5073161;28;20420;-72
2023/05/26 05:50:03;;;;;;;33.40;7.65;;;;;;;9.08;91.40;102841.03;5068817;28;20059;-72
2023/05/26 05:52:29;;;;;;;28.98;7.45;;;;;;;9.13;92.47;102835.50;5085676;28;20123;-72
2023/05/26 05:54:54;;;;;;;31.05;7.72;;;;;;;9.20;91.84;102839.72;5058539;28;20128;-72
2023/05/26 05:57:20;;;;;;;30.90;8.25;;;;;;;9.22;92.85;102840.53;5084026;28;20066;-73
2023/05/26 05:59:45;;;;;;;31.33;7.80;;;;;;;9.30;93.58;102843.81;5077624;28;20050;-72
2023/05/26 06:02:10;;;;;;;30.08;7.28;;;;;;;9.35;92.03;102849.03;5069368;28;20111;-72
2023/05/26 06:04:35;;;;;;;34.28;7.45;;;;;;;9.43;92.06;102849.63;5094255;28;20020;-72
2023/05/26 06:07:01;;;;;;;30.23;7.40;;;;;;;9.49;91.18;102845.81;5097623;28;20129;-72
2023/05/26 06:09:27;;;;;;;32.60;8.32;;;;;;;9.55;91.52;102854.53;5095751;28;20028;-73
2023/05/26 06:11:52;;;;;;;32.00;8.38;;;;;;;9.63;92.27;102851.56;5081071;28;20024;-72
2023/05/26 06:14:18;;;;;;;29.08;8.38;;;;;;;9.72;90.29;102848.56;5073073;28;20028;-72
2023/05/26 06:16:43;;;;;;;28.60;7.00;;;;;;;9.80;90.36;102851.81;5099928;28;20028;-72
2023/05/26 06:19:08;;;;;;;35.55;7.85;;;;;;;9.90;90.58;102856.84;5081772;28;20047;-73
2023/05/26 06:21:33;;;;;;;23.70;6.68;;;;;;;9.97;88.49;102858.34;5099521;28;20040;-72
2023/05/26 06:23:59;;;;;;;32.10;6.97;;;;;;;10.03;88.58;102851.84;5102855;28;20028;-73
2023/05/26 06:26:25;;;;;;;28.80;8.27;;;;;;;10.05;86.48;102856.25;5100630;28;20093;-72
2023/05/26 06:28:50;;;;;;;26.08;7.07;;;;;;;10.12;86.70;102849.69;5093076;28;20106;-72
2023/05/26 06:31:15;;;;;;;30.40;6.85;;;;;;;10.18;86.54;102853.97;5082889;28;20084;-73
2023/05/26 06:33:41;;;;;;;27.58;8.27;;;;;;;10.24;85.23;102855.53;5098210;28;20111;-72
2023/05/26 06:36:07;;;;;;;34.47;6.90;;;;;;;10.31;85.67;102857.91;5090399;28;20027;-73
2023/05/26 06:38:32;;;;;;;28.80;6.72;;;;;;;10.37;85.87;102846.06;5094878;28;20028;-72
2023/05/26 06:40:57;;;;;;;29.70;7.65;;;;;;;10.41;84.36;102855.75;5096817;28;20039;-73
2023/05/26 06:43:22;;;;;;;25.33;7.28;;;;;;;10.45;85.54;102852.03;5101971;28;20019;-73
2023/05/26 06:45:48;;;;;;;30.90;7.35;;;;;;;10.47;83.68;102851.97;5083820;28;20063;-73
2023/05/26 06:48:13;;;;;;;32.65;7.60;;;;;;;10.51;84.59;102855.38;5092430;28;20115;-73
2023/05/26 06:50:38;;;;;;;24.75;6.60;;;;;;;10.54;84.12;102855.25;5080962;28;20080;-73
2023/05/26 06:53:04;;;;;;;29.67;7.13;;;;;;;10.55;83.05;102860.56;5090181;28;20115;-73
2023/05/26 06:55:29;;;;;;;29.10;7.38;;;;;;;10.61;83.21;102856.75;5093424;28;20521;-73
2023/05/26 06:57:55;;;;;;;26.80;6.70;;;;;;;10.63;82.23;102847.69;5080536;28;20023;-73
2023/05/26 07:00:21;;;;;;;28.30;7.80;;;;;;;10.70;84.59;102859.03;5083471;28;20061;-73
2023/05/26 07:02:46;;;;;;;29.75;7.22;;;;;;;10.75;83.04;102854.38;5093126;28;20042;-73
2023/05/26 07:05:11;;;;;;;27.05;6.32;;;;;;;10.82;83.40;102863.94;5091826;28;20032;-73
2023/05/26 07:07:37;;;;;;;23.60;6.95;;;;;;;10.91;83.88;102870.75;5075687;28;20066;-73
2023/05/26 07:10:05;;;;;;;27.88;7.43;;;;;;;10.95;83.61;102861.59;5080564;28;20035;-72
2023/05/26 07:12:31;;;;;;;28.60;7.53;;;;;;;10.97;80.34;102859.72;5083724;28;20030;-73
2023/05/26 07:14:56;;;;;;;27.80;6.65;;;;;;;11.00;82.43;102866.78;5079257;28;20471;-73
2023/05/26 07:17:21;;;;;;;31.52;7.82;;;;;;;11.01;81.54;102857.75;5096788;28;20455;-73
2023/05/26 07:19:47;;;;;;;28.10;7.53;;;;;;;11.07;81.02;102862.00;5096976;28;20085;-74
2023/05/26 07:22:12;;;;;;;28.52;6.97;;;;;;;11.12;81.88;102860.00;5094587;28;20030;-73
2023/05/26 07:24:37;;;;;;;28.25;7.68;;;;;;;11.16;79.78;102867.00;5072634;28;20028;-73
2023/05/26 07:27:03;;;;;;;30.75;8.43;;;;;;;11.18;81.68;102857.03;5090063;28;20106;-73
2023/05/26 07:29:28;;;;;;;33.40;8.27;;;;;;;11.21;80.45;102867.66;5078146;28;20032;-73
2023/05/26 07:31:54;;;;;;;27.38;7.40;;;;;;;11.27;79.68;102872.75;5078214;28;20109;-73
2023/05/26 07:34:20;;;;;;;27.33;6.53;;;;;;;11.30;79.24;102863.69;5095912;28;20037;-73
2023/05/26 07:36:45;;;;;;;24.67;7.03;;;;;;;11.37;79.47;102865.16;5083236;28;20084;-73
2023/05/26 07:39:10;;;;;;;32.40;7.75;;;;;;;11.42;79.83;102867.66;5081646;28;20028;-73
2023/05/26 07:41:36;;;;;;;29.67;6.75;;;;;;;11.45;79.77;102868.41;5099649;28;20032;-72
2023/05/26 07:44:02;;;;;;;26.02;6.28;;;;;;;11.47;78.99;102866.50;5090802;28;20499;-72
2023/05/26 07:46:27;;;;;;;26.27;6.75;;;;;;;11.49;80.32;102863.75;5076155;28;20023;-72
2023/05/26 07:48:53;;;;;;;27.65;7.28;;;;;;;11.54;80.03;102862.59;5082382;28;20474;-72
2023/05/26 07:51:19;;;;;;;23.38;6.45;;;;;;;11.57;78.36;102866.09;5079396;28;20051;-72
2023/05/26 07:53:44;;;;;;;31.58;7.88;;;;;;;11.59;79.15;102874.97;5085510;28;20226;-72
2023/05/26 07:56:10;;;;;;;25.73;6.70;;;;;;;11.62;77.24;102864.06;5075334;28;20040;-73
2023/05/26 07:58:37;;;;;;;31.13;7.85;;;;;;;11.67;79.15;102870.09;5098539;28;20016;-72
2023/05/26 08:01:02;;;;;;;29.73;7.65;;;;;;;11.72;79.61;102868.09;5097198;28;20095;-72
2023/05/26 08:03:27;;;;;;;33.30;7.45;;;;;;;11.76;77.54;102869.72;5099243;28;20055;-72
2023/05/26 08:05:53;;;;;;;26.70;6.78;;;;;;;11.78;76.69;102865.09;5088930;28;20035;-72
2023/05/26 08:08:18;;;;;;;30.00;8.18;;;;;;;11.79;78.72;102864.16;5099201;28;20124;-72
2023/05/26 08:10:43;;;;;;;28.08;7.50;;;;;;;11.81;77.85;102864.97;5100861;28;20076;-72
2023/05/26 08:13:09;;;;;;;32.53;8.07;;;;;;;11.86;77.97;102870.16;5084048;28;20022;-72
2023/05/26 08:15:37;;;;;;;29.23;7.45;;;;;;;11.89;77.99;102857.41;5098235;28;20055;-72
2023/05/26 08:18:02;;;;;;;25.08;7.03;;;;;;;12.00;79.55;102872.22;5086663;28;20106;-72
2023/05/26 08:20:27;;;;;;;28.95;6.82;;;;;;;12.02;76.29;102867.63;5091711;28;20120;-72
2023/05/26 08:22:53;;;;;;;29.15;7.47;;;;;;;12.08;77.79;102861.97;5098834;28;20020;-72
2023/05/26 08:25:18;;;;;;;33.45;7.53;;;;;;;12.14;75.49;102867.06;5095513;28;20448;-72
2023/05/26 08:27:43;;;;;;;31.80;7.60;;;;;;;12.23;78.72;102855.84;5099375;28;20182;-72
2023/05/26 08:30:09;;;;;;;27.20;7.03;;;;;;;12.24;77.09;102862.97;5087837;28;20355;-75
2023/05/26 08:32:34;;;;;;;24.73;7.47;;;;;;;12.29;77.50;102861.91;5095491;28;20828;-72
2023/05/26 08:35:00;;;;;;;28.13;7.07;;;;;;;12.41;80.16;102863.97;5096710;28;20440;-72
2023/05/26 08:37:25;;;;;;;25.35;6.65;;;;;;;12.44;73.09;102855.72;5083947;28;20735;-72
2023/05/26 08:39:51;;;;;;;27.27;6.88;;;;;;;12.48;74.05;102854.63;5087727;28;20030;-70
2023/05/26 08:42:20;;;;;;;27.55;6.75;;;;;;;12.59;76.01;102860.38;5085326;28;20104;-73
2023/05/26 08:44:46;;;;;;;24.65;7.40;;;;;;;12.65;76.31;102851.13;5103112;28;20502;-71
2023/05/26 08:47:12;;;;;;;25.50;6.72;;;;;;;12.74;73.65;102860.56;5102849;28;20028;-73
2023/05/26 08:49:45;;;;;;;23.50;6.10;;;;;;;12.76;68.79;102855.97;5090967;28;20031;-72
2023/05/26 08:52:13;;;;;;;28.20;7.38;;;;;;;12.81;70.79;102863.81;5092019;28;20028;-72
2023/05/26 08:54:39;;;;;;;25.58;6.35;;;;;;;12.86;72.67;102862.63;5070244;28;20028;-72
2023/05/26 08:57:06;;;;;;;26.25;7.82;;;;;;;12.89;73.06;102859.78;5088523;28;20152;-72
2023/05/26 08:59:32;;;;;;;27.52;7.07;;;;;;;12.91;73.14;102857.91;5104106;28;20153;-72
2023/05/26 09:01:58;;;;;;;25.33;6.57;;;;;;;12.95;72.98;102855.91;5086952;28;20068;-72
2023/05/26 09:04:25;;;;;;;26.70;6.45;;;;;;;13.01;73.42;102860.97;5086402;28;20134;-72
2023/05/26 09:06:50;;;;;;;28.40;7.03;;;;;;;13.01;70.70;102854.72;5101050;28;20093;-72
2023/05/26 09:09:17;;;;;;;24.90;5.97;;;;;;;13.06;73.25;102856.22;5099282;28;20479;-72
2023/05/26 09:11:43;;;;;;;30.25;7.40;;;;;;;13.14;70.53;102860.34;5084595;28;20098;-72
2023/05/26 09:14:12;;;;;;;27.90;6.72;;;;;;;13.18;71.95;102865.50;5092872;28;20028;-72
2023/05/26 09:16:38;;;;;;;26.17;6.20;;;;;;;13.21;71.62;102854.53;5102195;28;20047;-72
2023/05/26 09:19:04;;;;;;;25.20;6.75;;;;;;;13.27;72.02;102856.06;5095414;28;20082;-72
2023/05/26 09:21:30;;;;;;;23.40;5.35;;;;;;;13.31;70.09;102864.84;5064847;28;20487;-72
2023/05/26 09:23:57;;;;;;;20.20;6.10;;;;;;;13.32;67.30;102867.47;5091081;28;20036;-72
2023/05/26 09:26:33;;;;;;;27.20;6.13;;;;;;;13.34;66.77;102856.59;5103085;28;20102;-72
2023/05/26 09:29:00;;;;;;;21.70;5.63;;;;;;;13.36;66.00;102868.22;5082335;28;20118;-73
2023/05/26 09:31:36;;;;;;;26.90;7.03;;;;;;;13.41;67.75;102858.03;5099887;28;20085;-71
2023/05/26 09:34:01;;;;;;;29.38;6.00;;;;;;;13.46;67.98;102867.66;5083467;28;20101;-72
2023/05/26 09:36:33;;;;;;;28.10;6.38;;;;;;;13.52;67.39;102866.47;5102880;28;20032;-72
2023/05/26 09:39:00;;;;;;;20.45;5.28;;;;;;;13.53;65.78;102870.03;5102650;28;20072;-72
2023/05/26 09:41:35;;;;;;;22.35;6.43;;;;;;;13.65;69.08;102877.47;5082913;28;20161;-73
2023/05/26 09:44:11;;;;;;;25.65;6.07;;;;;;;13.69;67.78;102865.56;5102472;28;20368;-72
2023/05/26 09:46:37;;;;;;;25.20;5.60;;;;;;;13.74;66.22;102862.59;5092430;28;20089;-72
2023/05/26 09:49:13;;;;;;;28.58;7.00;;;;;;;13.77;66.91;102874.09;5080994;28;20020;-72
2023/05/26 09:51:41;;;;;;;25.98;5.90;;;;;;;13.85;66.08;102862.00;5075204;28;20028;-72
2023/05/26 09:54:08;;;;;;;26.35;6.65;;;;;;;13.88;64.89;102865.44;5100992;28;20031;-72
2023/05/26 09:56:37;;;;;;;24.52;7.05;;;;;;;13.91;66.66;102870.66;5103716;28;20418;-72
2023/05/26 09:59:08;;;;;;;29.63;6.80;;;;;;;13.95;65.38;102853.31;5104101;28;20443;-73
2023/05/26 10:01:36;;;;;;;27.65;5.60;;;;;;;14.02;64.29;102852.97;5102138;28;20051;-73
2023/05/26 10:04:09;;;;;;;25.45;6.85;;;;;;;14.07;65.04;102845.44;5101264;28;20050;-72
2023/05/26 10:06:38;;;;;;;23.05;5.82;;;;;;;14.07;59.65;102851.75;5084104;28;20051;-72
2023/05/26 10:09:04;;;;;;;27.00;7.03;;;;;;;14.17;66.06;102854.78;5104208;28;20027;-72
2023/05/26 10:11:32;;;;;;;20.85;6.15;;;;;;;14.23;63.68;102849.06;5085600;28;20446;-73
2023/05/26 10:13:58;;;;;;;32.45;6.90;;;;;;;14.29;64.92;102843.28;5098217;28;20047;-72
2023/05/26 10:16:23;;;;;;;25.02;5.93;;;;;;;14.31;62.58;102851.31;5085795;28;20111;-73
2023/05/26 10:18:49;;;;;;;22.92;5.70;;;;;;;14.39;60.86;102838.22;5102125;28;20383;-72
2023/05/26 10:21:19;;;;;;;19.52;5.45;;;;;;;14.42;63.14;102837.16;5100367;28;20103;-72
2023/05/26 10:23:55;;;;;;;25.67;6.10;;;;;;;14.45;61.63;102842.41;5101501;28;20043;-72
2023/05/26 10:26:26;;;;;;;21.02;5.68;;;;;;;14.48;60.97;102844.91;5103965;28;20115;-72
2023/05/26 10:28:56;;;;;;;21.08;6.13;;;;;;;14.56;64.09;102839.94;5084248;28;20027;-72
2023/05/26 10:31:29;;;;;;;24.73;5.90;;;;;;;14.58;63.79;102838.00;5081776;28;20039;-72
2023/05/26 10:33:55;;;;;;;23.63;6.43;;;;;;;14.62;61.41;102839.59;5083039;28;20040;-72
2023/05/26 10:36:21;;;;;;;23.27;6.25;;;;;;;14.70;63.80;102836.47;5103686;28;20152;-73
2023/05/26 10:38:48;;;;;;;21.05;6.63;;;;;;;14.72;59.29;102844.50;5103786;28;20114;-73
2023/05/26 10:41:37;;;;;;;24.65;5.40;;;;;;;14.78;61.73;102836.00;5082915;28;20048;-72
2023/05/26 10:44:03;;;;;;;22.10;5.47;;;;;;;14.85;60.14;102845.50;5082353;28;20024;-72
2023/05/26 10:46:37;;;;;;;20.85;5.70;;;;;;;14.89;60.22;102835.34;5099061;28;20026;-72
2023/05/26 10:49:02;;;;;;;24.17;6.45;;;;;;;14.95;60.74;102826.84;5082075;28;20076;-72
2023/05/26 10:51:29;;;;;;;18.30;4.85;;;;;;;14.96;58.94;102826.75;5103030;28;20113;-72
2023/05/26 10:53:56;;;;;;;24.23;6.05;;;;;;;15.01;60.90;102821.09;5085245;28;20027;-72
2023/05/26 10:56:43;;;;;;;27.33;6.68;;;;;;;15.06;59.92;102831.66;5079458;28;20066;-72
2023/05/26 10:59:20;;;;;;;31.70;6.38;;;;;;;15.10;59.41;102825.09;5080035;28;20020;-72
2023/05/26 11:01:50;;;;;;;24.75;6.35;;;;;;;15.12;56.64;102818.59;5070605;28;20024;-72
2023/05/26 11:04:16;;;;;;;24.40;5.53;;;;;;;15.21;59.64;102822.56;5083138;28;20456;-72
2023/05/26 11:06:52;;;;;;;21.95;5.57;;;;;;;15.27;58.86;102824.03;5080173;28;20039;-72
2023/05/26 11:09:22;;;;;;;21.13;5.57;;;;;;;15.28;56.81;102818.50;5079583;28;20453;-72
2023/05/26 11:11:59;;;;;;;23.42;5.97;;;;;;;15.32;56.59;102822.78;5082319;28;20027;-72
2023/05/26 11:14:33;;;;;;;23.50;5.10;;;;;;;15.34;56.19;102815.44;5081467;28;20075;-72
2023/05/26 11:17:04;;;;;;;21.33;5.63;;;;;;;15.40;56.85;102816.00;5070655;28;20148;-73
2023/05/26 11:19:38;;;;;;;21.85;5.25;;;;;;;15.51;58.05;102819.78;5078316;28;20048;-72